sensor_id;sensor_type;location;lat;lon;timestamp;pressure;altitude;pressure_sealevel;temperature;humidity
9277;BME280;4676;42.678;23.244;2023-02-18T00:01:27;94823.25;;;3.37;79.14
9277;BME280;4676;42.678;23.244;2023-02-18T00:03:55;94811.53;;;3.42;77.98
9277;BME280;4676;42.678;23.244;2023-02-18T00:06:26;94808.19;;;3.34;79.95
9277;BME280;4676;42.678;23.244;2023-02-18T00:08:53;94804.00;;;3.39;77.49
9277;BME280;4676;42.678;23.244;2023-02-18T00:11:23;94801.50;;;3.38;77.97
9277;BME280;4676;42.678;23.244;2023-02-18T00:13:50;94799.88;;;3.22;79.73
9277;BME280;4676;42.678;23.244;2023-02-18T00:16:17;94794.00;;;3.32;79.62
9277;BME280;4676;42.678;23.244;2023-02-18T00:18:44;94774.81;;;3.19;79.45
9277;BME280;4676;42.678;23.244;2023-02-18T00:21:11;94792.34;;;3.22;79.63
9277;BME280;4676;42.678;23.244;2023-02-18T00:23:38;94789.00;;;3.30;77.17
9277;BME280;4676;42.678;23.244;2023-02-18T00:26:06;94779.00;;;3.23;78.09
9277;BME280;4676;42.678;23.244;2023-02-18T00:28:34;94784.00;;;3.29;79.24
9277;BME280;4676;42.678;23.244;2023-02-18T00:31:05;94774.84;;;3.23;79.04
9277;BME280;4676;42.678;23.244;2023-02-18T00:33:32;94770.66;;;3.15;79.58
9277;BME280;4676;42.678;23.244;2023-02-18T00:36:01;94753.97;;;3.09;81.55
9277;BME280;4676;42.678;23.244;2023-02-18T00:38:28;94759.00;;;3.01;81.79
9277;BME280;4676;42.678;23.244;2023-02-18T00:40:55;94772.34;;;3.00;81.50
9277;BME280;4676;42.678;23.244;2023-02-18T00:43:21;94769.00;;;3.09;81.77
9277;BME280;4676;42.678;23.244;2023-02-18T00:45:50;94754.81;;;2.99;81.58
9277;BME280;4676;42.678;23.244;2023-02-18T00:48:17;94769.00;;;3.06;80.24
9277;BME280;4676;42.678;23.244;2023-02-18T00:50:44;94747.31;;;3.02;81.50
9277;BME280;4676;42.678;23.244;2023-02-18T00:53:11;94755.66;;;2.98;82.08
9277;BME280;4676;42.678;23.244;2023-02-18T00:55:38;94763.97;;;3.33;79.00
9277;BME280;4676;42.678;23.244;2023-02-18T00:58:05;94758.13;;;3.25;78.68
9277;BME280;4676;42.678;23.244;2023-02-18T01:00:32;94768.97;;;3.24;78.86
9277;BME280;4676;42.678;23.244;2023-02-18T01:03:01;94725.63;;;3.03;78.91
9277;BME280;4676;42.678;23.244;2023-02-18T01:05:27;94758.13;;;3.13;79.71
9277;BME280;4676;42.678;23.244;2023-02-18T01:07:54;94768.97;;;3.14;80.72
9277;BME280;4676;42.678;23.244;2023-02-18T01:10:21;94749.78;;;3.07;80.52
9277;BME280;4676;42.678;23.244;2023-02-18T01:12:48;94748.97;;;3.00;80.82
9277;BME280;4676;42.678;23.244;2023-02-18T01:15:16;94745.66;;;2.92;81.45
9277;BME280;4676;42.678;23.244;2023-02-18T01:17:42;94748.97;;;3.05;81.82
9277;BME280;4676;42.678;23.244;2023-02-18T01:20:12;94708.94;;;2.74;81.92
9277;BME280;4676;42.678;23.244;2023-02-18T01:22:39;94742.31;;;2.88;83.02
9277;BME280;4676;42.678;23.244;2023-02-18T01:25:07;94749.81;;;2.79;83.31
9277;BME280;4676;42.678;23.244;2023-02-18T01:27:34;94755.66;;;2.72;84.60
9277;BME280;4676;42.678;23.244;2023-02-18T01:30:01;94753.97;;;2.71;84.60
9277;BME280;4676;42.678;23.244;2023-02-18T01:32:28;94747.28;;;2.75;85.22
9277;BME280;4676;42.678;23.244;2023-02-18T01:34:54;94748.13;;;2.69;85.73
9277;BME280;4676;42.678;23.244;2023-02-18T01:37:22;94750.63;;;2.78;85.71
9277;BME280;4676;42.678;23.244;2023-02-18T01:39:49;94752.31;;;2.78;85.21
9277;BME280;4676;42.678;23.244;2023-02-18T01:42:18;94720.63;;;2.56;84.41
9277;BME280;4676;42.678;23.244;2023-02-18T01:44:46;94755.63;;;2.75;84.67
9277;BME280;4676;42.678;23.244;2023-02-18T01:47:14;94754.00;;;2.77;85.61
9277;BME280;4676;42.678;23.244;2023-02-18T01:49:42;94754.81;;;2.60;86.08
9277;BME280;4676;42.678;23.244;2023-02-18T01:52:13;94758.97;;;2.71;85.28
9277;BME280;4676;42.678;23.244;2023-02-18T01:54:44;94733.97;;;2.53;85.97
9277;BME280;4676;42.678;23.244;2023-02-18T01:57:14;94754.78;;;2.61;85.73
9277;BME280;4676;42.678;23.244;2023-02-18T01:59:45;94773.16;;;2.60;87.08
9277;BME280;4676;42.678;23.244;2023-02-18T02:02:16;94731.41;;;2.23;88.67
9277;BME280;4676;42.678;23.244;2023-02-18T02:04:44;94776.44;;;2.39;89.22
9277;BME280;4676;42.678;23.244;2023-02-18T02:07:11;94768.94;;;2.39;88.58
9277;BME280;4676;42.678;23.244;2023-02-18T02:09:39;94719.72;;;2.13;89.06
9277;BME280;4676;42.678;23.244;2023-02-18T02:12:38;94758.13;;;2.43;88.75
9277;BME280;4676;42.678;23.244;2023-02-18T02:15:23;94763.97;;;2.45;90.29
9277;BME280;4676;42.678;23.244;2023-02-18T02:18:06;94749.81;;;2.52;90.64
9277;BME280;4676;42.678;23.244;2023-02-18T02:24:11;94751.47;;;2.68;88.63
9277;BME280;4676;42.678;23.244;2023-02-18T02:27:05;94747.28;;;2.50;89.41
9277;BME280;4676;42.678;23.244;2023-02-18T02:30:00;94740.63;;;2.45;89.52
9277;BME280;4676;42.678;23.244;2023-02-18T02:32:55;94733.97;;;2.42;90.14
9277;BME280;4676;42.678;23.244;2023-02-18T02:35:29;94738.94;;;2.39;89.88
9277;BME280;4676;42.678;23.244;2023-02-18T02:38:01;94748.09;;;2.36;91.21
9277;BME280;4676;42.678;23.244;2023-02-18T02:40:32;94737.28;;;2.41;91.32
9277;BME280;4676;42.678;23.244;2023-02-18T02:43:08;94743.94;;;2.50;89.67
9277;BME280;4676;42.678;23.244;2023-02-18T02:45:47;94728.13;;;2.45;89.63
9277;BME280;4676;42.678;23.244;2023-02-18T02:48:24;94728.94;;;2.36;90.94
9277;BME280;4676;42.678;23.244;2023-02-18T02:51:04;94718.91;;;2.20;92.28
9277;BME280;4676;42.678;23.244;2023-02-18T02:53:34;94723.94;;;2.35;91.63
9277;BME280;4676;42.678;23.244;2023-02-18T02:56:02;94729.75;;;2.20;91.71
9277;BME280;4676;42.678;23.244;2023-02-18T02:58:29;94727.22;;;2.07;93.61
9277;BME280;4676;42.678;23.244;2023-02-18T03:01:16;94733.84;;;1.98;94.81
9277;BME280;4676;42.678;23.244;2023-02-18T03:06:56;94752.22;;;2.07;95.00
9277;BME280;4676;42.678;23.244;2023-02-18T03:09:33;94759.72;;;2.07;95.81
9277;BME280;4676;42.678;23.244;2023-02-18T03:12:07;94758.06;;;2.10;95.36
9277;BME280;4676;42.678;23.244;2023-02-18T03:14:56;94716.31;;;1.76;96.59
9277;BME280;4676;42.678;23.244;2023-02-18T03:17:26;94767.19;;;1.96;97.40
9277;BME280;4676;42.678;23.244;2023-02-18T03:19:57;94743.84;;;1.89;98.06
9277;BME280;4676;42.678;23.244;2023-02-18T03:22:31;94758.00;;;1.92;99.67
9277;BME280;4676;42.678;23.244;2023-02-18T03:25:02;94761.34;;;1.98;99.60
9277;BME280;4676;42.678;23.244;2023-02-18T03:27:32;94732.16;;;1.88;99.38
9277;BME280;4676;42.678;23.244;2023-02-18T03:30:06;94760.56;;;2.04;99.27
9277;BME280;4676;42.678;23.244;2023-02-18T03:32:36;94769.69;;;2.05;99.14
9277;BME280;4676;42.678;23.244;2023-02-18T03:35:07;94780.63;;;2.28;96.68
9277;BME280;4676;42.678;23.244;2023-02-18T03:37:38;94780.63;;;2.34;94.22
9277;BME280;4676;42.678;23.244;2023-02-18T03:40:08;94753.06;;;2.10;93.81
9277;BME280;4676;42.678;23.244;2023-02-18T03:42:36;94782.25;;;2.23;94.84
9277;BME280;4676;42.678;23.244;2023-02-18T03:45:03;94781.41;;;2.20;95.07
9277;BME280;4676;42.678;23.244;2023-02-18T03:47:29;94784.72;;;2.19;93.82
9277;BME280;4676;42.678;23.244;2023-02-18T03:49:56;94783.94;;;2.27;93.49
9277;BME280;4676;42.678;23.244;2023-02-18T03:52:23;94797.28;;;2.28;94.22
9277;BME280;4676;42.678;23.244;2023-02-18T03:54:51;94802.22;;;2.16;95.38
9277;BME280;4676;42.678;23.244;2023-02-18T03:57:18;94799.69;;;2.08;95.74
9277;BME280;4676;42.678;23.244;2023-02-18T03:59:45;94805.53;;;2.06;95.72
9277;BME280;4676;42.678;23.244;2023-02-18T04:02:11;94796.38;;;2.09;96.10
9277;BME280;4676;42.678;23.244;2023-02-18T04:04:38;94790.53;;;2.06;97.21
9277;BME280;4676;42.678;23.244;2023-02-18T04:07:05;94787.19;;;2.08;97.75
9277;BME280;4676;42.678;23.244;2023-02-18T04:09:31;94780.56;;;2.10;97.90
9277;BME280;4676;42.678;23.244;2023-02-18T04:11:59;94780.59;;;2.21;96.67
9277;BME280;4676;42.678;23.244;2023-02-18T04:14:26;94788.91;;;2.17;97.02
9277;BME280;4676;42.678;23.244;2023-02-18T04:16:53;94775.56;;;2.22;96.47
9277;BME280;4676;42.678;23.244;2023-02-18T04:19:20;94778.91;;;2.29;95.43
9277;BME280;4676;42.678;23.244;2023-02-18T04:21:46;94768.94;;;2.21;95.75
9277;BME280;4676;42.678;23.244;2023-02-18T04:24:13;94707.97;;;1.80;95.71
9277;BME280;4676;42.678;23.244;2023-02-18T04:26:40;94766.38;;;2.06;97.11
9277;BME280;4676;42.678;23.244;2023-02-18T04:29:08;94750.59;;;2.18;96.70
9277;BME280;4676;42.678;23.244;2023-02-18T04:31:34;94745.59;;;2.21;95.79
9277;BME280;4676;42.678;23.244;2023-02-18T04:34:01;94752.28;;;2.31;93.11
9277;BME280;4676;42.678;23.244;2023-02-18T04:36:28;94743.06;;;3.31;78.12
9277;BME280;4676;42.678;23.244;2023-02-18T04:38:54;94743.75;;;3.80;75.04
9277;BME280;4676;42.678;23.244;2023-02-18T04:41:21;94749.56;;;3.97;74.81
9277;BME280;4676;42.678;23.244;2023-02-18T04:43:48;94753.41;;;4.54;65.83
9277;BME280;4676;42.678;23.244;2023-02-18T04:46:16;94738.00;;;6.48;53.88
9277;BME280;4676;42.678;23.244;2023-02-18T04:48:43;94752.81;;;7.23;52.56
9277;BME280;4676;42.678;23.244;2023-02-18T04:51:10;94756.91;;;7.28;53.15
9277;BME280;4676;42.678;23.244;2023-02-18T04:53:36;94758.94;;;6.53;56.29
9277;BME280;4676;42.678;23.244;2023-02-18T04:56:03;94767.38;;;6.47;58.17
9277;BME280;4676;42.678;23.244;2023-02-18T04:58:30;94752.25;;;5.86;61.55
9277;BME280;4676;42.678;23.244;2023-02-18T05:00:58;94778.78;;;5.31;63.64
9277;BME280;4676;42.678;23.244;2023-02-18T05:03:26;94752.53;;;4.59;67.82
9277;BME280;4676;42.678;23.244;2023-02-18T05:05:53;94795.34;;;4.39;70.21
9277;BME280;4676;42.678;23.244;2023-02-18T05:08:20;94798.81;;;4.06;73.13
9277;BME280;4676;42.678;23.244;2023-02-18T05:10:47;94783.91;;;3.67;77.02
9277;BME280;4676;42.678;23.244;2023-02-18T05:13:14;94814.03;;;3.36;81.16
9277;BME280;4676;42.678;23.244;2023-02-18T05:15:41;94810.69;;;3.24;82.91
9277;BME280;4676;42.678;23.244;2023-02-18T05:18:07;94794.00;;;3.14;83.73
9277;BME280;4676;42.678;23.244;2023-02-18T05:20:36;94696.41;;;2.61;85.71
9277;BME280;4676;42.678;23.244;2023-02-18T05:23:02;94776.47;;;3.14;86.92
9277;BME280;4676;42.678;23.244;2023-02-18T05:25:29;94784.84;;;3.03;87.18
9277;BME280;4676;42.678;23.244;2023-02-18T05:27:56;94773.16;;;3.09;86.50
9277;BME280;4676;42.678;23.244;2023-02-18T05:30:23;94780.69;;;2.98;87.27
9277;BME280;4676;42.678;23.244;2023-02-18T05:32:49;94770.69;;;2.95;88.04
9277;BME280;4676;42.678;23.244;2023-02-18T05:35:17;94761.50;;;2.94;89.40
9277;BME280;4676;42.678;23.244;2023-02-18T05:37:45;94758.16;;;3.01;87.17
9277;BME280;4676;42.678;23.244;2023-02-18T05:40:12;94773.16;;;2.99;87.27
9277;BME280;4676;42.678;23.244;2023-02-18T05:42:38;94763.97;;;3.00;87.03
9277;BME280;4676;42.678;23.244;2023-02-18T05:45:06;94766.50;;;2.97;87.92
9277;BME280;4676;42.678;23.244;2023-02-18T05:47:33;94765.66;;;3.01;89.63
9277;BME280;4676;42.678;23.244;2023-02-18T05:49:59;94774.00;;;3.01;88.13
9277;BME280;4676;42.678;23.244;2023-02-18T05:52:26;94776.50;;;3.08;87.84
9277;BME280;4676;42.678;23.244;2023-02-18T05:54:54;94775.69;;;3.06;88.10
9277;BME280;4676;42.678;23.244;2023-02-18T05:57:21;94728.13;;;2.87;87.48
9277;BME280;4676;42.678;23.244;2023-02-18T05:59:48;94785.69;;;3.07;89.29
9277;BME280;4676;42.678;23.244;2023-02-18T06:02:14;94799.88;;;3.00;87.41
9277;BME280;4676;42.678;23.244;2023-02-18T06:04:41;94804.03;;;3.12;86.85
9277;BME280;4676;42.678;23.244;2023-02-18T06:07:08;94792.34;;;2.96;87.76
9277;BME280;4676;42.678;23.244;2023-02-18T06:09:34;94783.19;;;2.98;88.49
9277;BME280;4676;42.678;23.244;2023-02-18T06:12:03;94787.34;;;3.16;89.01
9277;BME280;4676;42.678;23.244;2023-02-18T06:14:30;94718.97;;;2.74;90.24
9277;BME280;4676;42.678;23.244;2023-02-18T06:16:56;94789.84;;;3.25;90.01
9277;BME280;4676;42.678;23.244;2023-02-18T06:19:23;94783.16;;;3.28;91.06
9277;BME280;4676;42.678;23.244;2023-02-18T06:21:50;94785.63;;;3.51;90.03
9277;BME280;4676;42.678;23.244;2023-02-18T06:24:16;94779.78;;;3.53;86.99
9277;BME280;4676;42.678;23.244;2023-02-18T06:26:43;94791.44;;;3.67;85.44
9277;BME280;4676;42.678;23.244;2023-02-18T06:29:11;94778.91;;;3.73;84.40
9277;BME280;4676;42.678;23.244;2023-02-18T06:31:38;94770.47;;;3.90;83.50
9277;BME280;4676;42.678;23.244;2023-02-18T06:34:05;94769.66;;;3.90;82.54
9277;BME280;4676;42.678;23.244;2023-02-18T06:36:32;94777.94;;;3.98;82.25
9277;BME280;4676;42.678;23.244;2023-02-18T06:39:01;94768.78;;;3.94;84.16
9277;BME280;4676;42.678;23.244;2023-02-18T06:41:27;94759.56;;;4.03;85.27
9277;BME280;4676;42.678;23.244;2023-02-18T06:43:54;94780.38;;;4.18;82.25
9277;BME280;4676;42.678;23.244;2023-02-18T06:46:22;94787.06;;;4.22;81.68
9277;BME280;4676;42.678;23.244;2023-02-18T06:48:49;94775.34;;;4.25;82.19
9277;BME280;4676;42.678;23.244;2023-02-18T06:51:16;94766.13;;;4.29;79.73
9277;BME280;4676;42.678;23.244;2023-02-18T06:53:44;94755.25;;;4.24;79.95
9277;BME280;4676;42.678;23.244;2023-02-18T06:56:11;94713.53;;;4.14;79.79
9277;BME280;4676;42.678;23.244;2023-02-18T06:58:38;94767.69;;;4.45;80.66
9277;BME280;4676;42.678;23.244;2023-02-18T07:01:04;94762.59;;;4.54;82.54
9277;BME280;4676;42.678;23.244;2023-02-18T07:03:32;94768.34;;;4.68;80.22
9277;BME280;4676;42.678;23.244;2023-02-18T07:05:59;94733.38;;;4.47;78.25
9277;BME280;4676;42.678;23.244;2023-02-18T07:08:26;94782.47;;;4.87;77.83
9277;BME280;4676;42.678;23.244;2023-02-18T07:10:55;94773.19;;;4.98;78.72
9277;BME280;4676;42.678;23.244;2023-02-18T07:13:21;94765.63;;;5.00;75.14
9277;BME280;4676;42.678;23.244;2023-02-18T07:15:48;94761.41;;;5.03;71.30
9277;BME280;4676;42.678;23.244;2023-02-18T07:18:15;94756.25;;;5.19;71.99
9277;BME280;4676;42.678;23.244;2023-02-18T07:20:43;94751.13;;;5.28;71.71
9277;BME280;4676;42.678;23.244;2023-02-18T07:23:10;94752.69;;;5.39;70.37
9277;BME280;4676;42.678;23.244;2023-02-18T07:25:36;94753.81;;;5.11;69.99
9277;BME280;4676;42.678;23.244;2023-02-18T07:28:03;94752.94;;;5.15;70.12
9277;BME280;4676;42.678;23.244;2023-02-18T07:30:30;94743.78;;;5.08;71.44
9277;BME280;4676;42.678;23.244;2023-02-18T07:32:57;94757.06;;;5.22;70.94
9277;BME280;4676;42.678;23.244;2023-02-18T07:35:23;94761.19;;;5.28;70.89
9277;BME280;4676;42.678;23.244;2023-02-18T07:37:51;94764.59;;;5.24;70.19
9277;BME280;4676;42.678;23.244;2023-02-18T07:40:20;94782.06;;;5.36;69.86
9277;BME280;4676;42.678;23.244;2023-02-18T07:42:47;94779.34;;;5.57;69.97
9277;BME280;4676;42.678;23.244;2023-02-18T07:45:14;94780.06;;;5.68;70.06
9277;BME280;4676;42.678;23.244;2023-02-18T07:47:41;94781.59;;;5.81;68.67
9277;BME280;4676;42.678;23.244;2023-02-18T07:50:10;94792.44;;;5.91;67.84
9277;BME280;4676;42.678;23.244;2023-02-18T07:52:37;94793.13;;;6.05;69.31
9277;BME280;4676;42.678;23.244;2023-02-18T07:55:06;94794.69;;;6.14;67.63
9277;BME280;4676;42.678;23.244;2023-02-18T07:57:33;94794.53;;;6.26;67.79
9277;BME280;4676;42.678;23.244;2023-02-18T08:00:20;94793.56;;;6.36;66.74
9277;BME280;4676;42.678;23.244;2023-02-18T08:02:46;94781.59;;;6.53;66.53
9277;BME280;4676;42.678;23.244;2023-02-18T08:05:13;94711.41;;;6.32;66.68
9277;BME280;4676;42.678;23.244;2023-02-18T08:07:41;94782.66;;;6.96;64.93
9277;BME280;4676;42.678;23.244;2023-02-18T08:10:10;94786.81;;;6.97;63.42
9277;BME280;4676;42.678;23.244;2023-02-18T08:12:36;94787.69;;;6.96;64.33
9277;BME280;4676;42.678;23.244;2023-02-18T08:15:04;94785.88;;;7.04;63.51
9277;BME280;4676;42.678;23.244;2023-02-18T08:17:30;94789.47;;;6.88;62.54
9277;BME280;4676;42.678;23.244;2023-02-18T08:19:57;94772.38;;;7.09;64.56
9277;BME280;4676;42.678;23.244;2023-02-18T08:22:25;94776.34;;;7.23;61.81
9277;BME280;4676;42.678;23.244;2023-02-18T08:24:53;94771.19;;;7.29;61.05
9277;BME280;4676;42.678;23.244;2023-02-18T08:27:21;94755.38;;;7.21;60.28
9277;BME280;4676;42.678;23.244;2023-02-18T08:29:48;94743.38;;;7.32;60.53
9277;BME280;4676;42.678;23.244;2023-02-18T08:32:15;94740.66;;;7.44;60.81
9277;BME280;4676;42.678;23.244;2023-02-18T08:34:42;94743.00;;;7.55;60.50
9277;BME280;4676;42.678;23.244;2023-02-18T08:37:09;94752.06;;;7.65;59.16
9277;BME280;4676;42.678;23.244;2023-02-18T08:39:37;94756.97;;;7.71;58.76
9277;BME280;4676;42.678;23.244;2023-02-18T08:42:04;94752.19;;;7.59;59.69
9277;BME280;4676;42.678;23.244;2023-02-18T08:44:32;94746.63;;;7.39;60.33
9277;BME280;4676;42.678;23.244;2023-02-18T08:46:59;94747.38;;;7.45;60.30
9277;BME280;4676;42.678;23.244;2023-02-18T08:49:26;94744.56;;;7.62;59.97
9277;BME280;4676;42.678;23.244;2023-02-18T08:51:53;94749.25;;;7.80;59.72
9277;BME280;4676;42.678;23.244;2023-02-18T08:54:19;94752.34;;;7.94;58.80
9277;BME280;4676;42.678;23.244;2023-02-18T08:56:46;94763.84;;;8.09;58.80
9277;BME280;4676;42.678;23.244;2023-02-18T08:59:13;94763.66;;;8.18;59.65
9277;BME280;4676;42.678;23.244;2023-02-18T09:01:42;94715.16;;;8.02;58.90
9277;BME280;4676;42.678;23.244;2023-02-18T09:04:08;94769.84;;;8.45;58.03
9277;BME280;4676;42.678;23.244;2023-02-18T09:06:36;94766.31;;;8.53;59.03
9277;BME280;4676;42.678;23.244;2023-02-18T09:09:03;94769.59;;;8.57;59.16
9277;BME280;4676;42.678;23.244;2023-02-18T09:11:31;94778.81;;;8.60;58.31
9277;BME280;4676;42.678;23.244;2023-02-18T09:13:57;94765.91;;;8.72;57.72
9277;BME280;4676;42.678;23.244;2023-02-18T09:16:24;94765.91;;;8.72;59.28
9277;BME280;4676;42.678;23.244;2023-02-18T09:18:54;94772.97;;;8.94;59.19
9277;BME280;4676;42.678;23.244;2023-02-18T09:21:23;94733.69;;;8.81;57.41
9277;BME280;4676;42.678;23.244;2023-02-18T09:23:50;94772.63;;;9.10;56.65
9277;BME280;4676;42.678;23.244;2023-02-18T09:26:19;94753.06;;;9.16;55.88
9277;BME280;4676;42.678;23.244;2023-02-18T09:28:47;94726.91;;;9.17;55.60
9277;BME280;4676;42.678;23.244;2023-02-18T09:31:16;94743.03;;;9.47;55.76
9277;BME280;4676;42.678;23.244;2023-02-18T09:33:46;94738.31;;;9.67;54.37
9277;BME280;4676;42.678;23.244;2023-02-18T09:36:15;94738.53;;;9.89;54.36
9277;BME280;4676;42.678;23.244;2023-02-18T09:38:42;94746.53;;;10.06;54.14
9277;BME280;4676;42.678;23.244;2023-02-18T09:41:14;94734.81;;;10.33;53.62
9277;BME280;4676;42.678;23.244;2023-02-18T09:43:47;94739.00;;;10.34;52.24
9277;BME280;4676;42.678;23.244;2023-02-18T09:46:19;94740.72;;;10.61;52.36
9277;BME280;4676;42.678;23.244;2023-02-18T09:48:47;94731.50;;;10.86;52.18
9277;BME280;4676;42.678;23.244;2023-02-18T09:51:16;94723.38;;;11.03;52.08
9277;BME280;4676;42.678;23.244;2023-02-18T09:53:44;94741.47;;;11.43;48.79
9277;BME280;4676;42.678;23.244;2023-02-18T09:56:13;94744.50;;;11.54;47.15
9277;BME280;4676;42.678;23.244;2023-02-18T09:58:42;94701.47;;;11.51;47.75
9277;BME280;4676;42.678;23.244;2023-02-18T10:01:16;94723.56;;;11.74;48.01
9277;BME280;4676;42.678;23.244;2023-02-18T10:03:46;94713.31;;;12.00;47.40
9277;BME280;4676;42.678;23.244;2023-02-18T10:06:17;94695.09;;;12.13;44.11
9277;BME280;4676;42.678;23.244;2023-02-18T10:08:48;94715.91;;;12.89;42.39
9277;BME280;4676;42.678;23.244;2023-02-18T10:11:21;94707.84;;;13.43;38.18
9277;BME280;4676;42.678;23.244;2023-02-18T10:13:49;94706.69;;;13.70;37.28
9277;BME280;4676;42.678;23.244;2023-02-18T10:16:18;94710.72;;;13.94;37.59
9277;BME280;4676;42.678;23.244;2023-02-18T10:18:49;94717.03;;;14.06;36.22
9277;BME280;4676;42.678;23.244;2023-02-18T10:21:23;94719.44;;;14.09;36.10
9277;BME280;4676;42.678;23.244;2023-02-18T10:23:55;94724.81;;;14.42;35.28
9277;BME280;4676;42.678;23.244;2023-02-18T10:26:24;94713.16;;;14.55;36.07
9277;BME280;4676;42.678;23.244;2023-02-18T10:28:51;94712.31;;;14.73;36.30
9277;BME280;4676;42.678;23.244;2023-02-18T10:31:23;94694.69;;;14.86;37.29
9277;BME280;4676;42.678;23.244;2023-02-18T10:33:58;94696.44;;;15.02;37.78
9277;BME280;4676;42.678;23.244;2023-02-18T10:36:34;94644.84;;;14.79;38.79
9277;BME280;4676;42.678;23.244;2023-02-18T10:39:23;94697.44;;;15.17;38.31
9277;BME280;4676;42.678;23.244;2023-02-18T10:42:04;94694.16;;;15.15;38.36
9277;BME280;4676;42.678;23.244;2023-02-18T10:44:39;94682.91;;;15.19;39.57
9277;BME280;4676;42.678;23.244;2023-02-18T10:47:17;94685.75;;;15.30;39.05
9277;BME280;4676;42.678;23.244;2023-02-18T10:49:56;94683.78;;;15.35;36.45
9277;BME280;4676;42.678;23.244;2023-02-18T10:52:27;94667.88;;;15.30;36.40
9277;BME280;4676;42.678;23.244;2023-02-18T10:54:58;94670.16;;;15.54;34.40
9277;BME280;4676;42.678;23.244;2023-02-18T10:57:26;94666.19;;;15.81;34.89
9277;BME280;4676;42.678;23.244;2023-02-18T10:59:55;94666.22;;;15.64;32.45
9277;BME280;4676;42.678;23.244;2023-02-18T11:02:25;94669.84;;;15.60;33.05
9277;BME280;4676;42.678;23.244;2023-02-18T11:04:56;94661.28;;;15.61;33.32
9277;BME280;4676;42.678;23.244;2023-02-18T11:07:31;94656.00;;;15.46;32.63
9277;BME280;4676;42.678;23.244;2023-02-18T11:10:00;94658.19;;;15.37;33.06
9277;BME280;4676;42.678;23.244;2023-02-18T11:12:43;94645.66;;;15.49;32.94
9277;BME280;4676;42.678;23.244;2023-02-18T11:15:20;94657.88;;;15.60;32.41
9277;BME280;4676;42.678;23.244;2023-02-18T11:17:49;94649.78;;;15.52;33.46
9277;BME280;4676;42.678;23.244;2023-02-18T11:20:23;94648.81;;;15.55;33.63
9277;BME280;4676;42.678;23.244;2023-02-18T11:22:56;94649.09;;;15.48;32.88
9277;BME280;4676;42.678;23.244;2023-02-18T11:25:25;94645.16;;;15.41;32.69
9277;BME280;4676;42.678;23.244;2023-02-18T11:27:55;94641.88;;;15.39;32.53
9277;BME280;4676;42.678;23.244;2023-02-18T11:30:24;94630.09;;;15.37;33.40
9277;BME280;4676;42.678;23.244;2023-02-18T11:32:57;94627.28;;;15.41;33.17
9277;BME280;4676;42.678;23.244;2023-02-18T11:35:27;94617.31;;;15.54;32.86
9277;BME280;4676;42.678;23.244;2023-02-18T11:37:58;94612.88;;;15.58;32.46
9277;BME280;4676;42.678;23.244;2023-02-18T11:40:29;94603.41;;;15.60;33.61
9277;BME280;4676;42.678;23.244;2023-02-18T11:43:03;94612.41;;;15.67;33.03
9277;BME280;4676;42.678;23.244;2023-02-18T11:45:32;94606.78;;;15.43;32.22
9277;BME280;4676;42.678;23.244;2023-02-18T11:48:00;94596.25;;;15.16;32.86
9277;BME280;4676;42.678;23.244;2023-02-18T11:50:30;94607.41;;;15.14;33.52
9277;BME280;4676;42.678;23.244;2023-02-18T11:52:59;94603.38;;;15.27;33.68
9277;BME280;4676;42.678;23.244;2023-02-18T11:55:27;94599.00;;;15.29;33.84
9277;BME280;4676;42.678;23.244;2023-02-18T11:57:57;94592.06;;;15.65;33.59
9277;BME280;4676;42.678;23.244;2023-02-18T12:00:35;94572.44;;;15.81;32.95
9277;BME280;4676;42.678;23.244;2023-02-18T12:03:08;94580.66;;;16.04;33.24
9277;BME280;4676;42.678;23.244;2023-02-18T12:05:39;94584.25;;;16.15;33.38
9277;BME280;4676;42.678;23.244;2023-02-18T12:08:14;94563.63;;;16.34;33.41
9277;BME280;4676;42.678;23.244;2023-02-18T12:10:46;94572.69;;;16.55;33.03
9277;BME280;4676;42.678;23.244;2023-02-18T12:13:22;94566.84;;;16.69;32.46
9277;BME280;4676;42.678;23.244;2023-02-18T12:15:55;94576.25;;;16.53;31.96
9277;BME280;4676;42.678;23.244;2023-02-18T12:21:29;94536.16;;;15.90;32.81
9277;BME280;4676;42.678;23.244;2023-02-18T12:24:06;94569.19;;;16.11;33.22
9277;BME280;4676;42.678;23.244;2023-02-18T12:26:44;94575.88;;;16.29;33.29
9277;BME280;4676;42.678;23.244;2023-02-18T12:29:27;94559.34;;;16.50;34.78
9277;BME280;4676;42.678;23.244;2023-02-18T12:32:05;94556.47;;;16.56;33.37
9277;BME280;4676;42.678;23.244;2023-02-18T12:34:42;94549.13;;;16.34;33.55
9277;BME280;4676;42.678;23.244;2023-02-18T12:37:29;94548.47;;;16.31;33.49
9277;BME280;4676;42.678;23.244;2023-02-18T12:40:20;94529.97;;;16.26;34.15
9277;BME280;4676;42.678;23.244;2023-02-18T12:42:58;94510.16;;;16.29;37.17
9277;BME280;4676;42.678;23.244;2023-02-18T12:45:44;94528.72;;;16.48;34.34
9277;BME280;4676;42.678;23.244;2023-02-18T12:48:35;94519.38;;;16.47;33.79
9277;BME280;4676;42.678;23.244;2023-02-18T12:51:23;94527.34;;;16.43;33.50
9277;BME280;4676;42.678;23.244;2023-02-18T12:54:08;94514.22;;;16.33;33.54
9277;BME280;4676;42.678;23.244;2023-02-18T12:56:50;94506.94;;;16.26;33.76
9277;BME280;4676;42.678;23.244;2023-02-18T12:59:37;94528.72;;;16.33;34.70
9277;BME280;4676;42.678;23.244;2023-02-18T13:02:22;94514.22;;;16.33;34.61
9277;BME280;4676;42.678;23.244;2023-02-18T13:04:54;94518.81;;;16.42;33.85
9277;BME280;4676;42.678;23.244;2023-02-18T13:07:35;94519.16;;;16.36;34.04
9277;BME280;4676;42.678;23.244;2023-02-18T13:10:27;94535.31;;;16.37;34.18
9277;BME280;4676;42.678;23.244;2023-02-18T13:13:09;94525.44;;;16.31;34.26
9277;BME280;4676;42.678;23.244;2023-02-18T13:15:39;94523.59;;;16.33;34.72
9277;BME280;4676;42.678;23.244;2023-02-18T13:18:11;94532.53;;;16.41;34.82
9277;BME280;4676;42.678;23.244;2023-02-18T13:20:41;94516.03;;;16.31;34.96
9277;BME280;4676;42.678;23.244;2023-02-18T13:23:18;94523.78;;;16.30;34.14
9277;BME280;4676;42.678;23.244;2023-02-18T13:25:48;94524.59;;;16.30;35.08
9277;BME280;4676;42.678;23.244;2023-02-18T13:28:24;94513.16;;;16.22;34.86
9277;BME280;4676;42.678;23.244;2023-02-18T13:31:00;94515.06;;;16.18;35.61
9277;BME280;4676;42.678;23.244;2023-02-18T13:33:35;94527.69;;;16.21;35.00
9277;BME280;4676;42.678;23.244;2023-02-18T13:36:08;94529.75;;;16.15;35.63
9277;BME280;4676;42.678;23.244;2023-02-18T13:38:53;94519.13;;;16.07;35.63
9277;BME280;4676;42.678;23.244;2023-02-18T13:41:25;94525.63;;;16.12;35.63
9277;BME280;4676;42.678;23.244;2023-02-18T13:43:53;94526.78;;;16.07;35.99
9277;BME280;4676;42.678;23.244;2023-02-18T13:46:20;94523.31;;;15.92;35.57